CEFAS Endeavour — VQHF3 — position and weather

sailwx.info

Track history (hours):
 
Tides and Currents Weather Stations Pressure Air Temp Water Temp Dewpoint Dewpoint Depression Visibility Wind Speed Wind Dir Waves Ship Positions

Oceanographic research ship CEFAS Endeavour (UK)

Detailed information on ship capabilities available from University of Delaware's Ocean Information Center.

Last reported at 2014-Jul-23 13:33 UTC. Time now 2014-Jul-23 18:10 UTC.
Position N 50°37' W 001°50'.

Length 74 m; draft 6.3 m.

Type: Ship. MMSI: 235005270.

Date/timePositionNaut miles runAvg speedWind from/ knotsBaromVisibWave heightAir tempDewpointWater temp
2014-Jul-23 13:33N 50°37' W 001°50'5 5.0
2014-Jul-23 12:33N 50°40' W 001°43'1 1.3
2014-Jul-23 11:32N 50°39' W 001°45'2 1.8
2014-Jul-23 10:33N 50°40' W 001°43'13 4.0
2014-Jul-23 07:24N 50°35' W 001°25'1 0.5
2014-Jul-23 06:20N 50°35' W 001°24'0 0.1
2014-Jul-23 01:11N 50°35' W 001°24'0 0.0
2014-Jul-23 00:29N 50°35' W 001°24'1 0.1
2014-Jul-22 16:33N 50°34' W 001°24'58 3.2
2014-Jul-21 22:33N 49°36' W 001°10'2 0.8
2014-Jul-21 19:25N 49°34' W 001°09'2 0.6
2014-Jul-21 15:31N 49°33' W 001°12'4 4.0
2014-Jul-21 14:34N 49°34' W 001°07'5 4.7
2014-Jul-21 13:33N 49°38' W 001°03'19 3.2
2014-Jul-21 07:34N 49°24' W 000°43'3 3.5
2014-Jul-21 06:34N 49°26' W 000°40'5 5.2
2014-Jul-21 05:33N 49°25' W 000°32'7 6.5
2014-Jul-21 04:33N 49°23' W 000°22'1 0.9
2014-Jul-21 03:18N 49°24' W 000°23'0 0.0
2014-Jul-21 02:30N 49°24' W 000°23'0 0.0
2014-Jul-21 01:30N 49°24' W 000°23'0 0.0
2014-Jul-21 00:24N 49°24' W 000°23'0 0.1
2014-Jul-20 23:30N 49°24' W 000°23'0 0.1
2014-Jul-20 22:30N 49°24' W 000°23'0 0.1
2014-Jul-20 21:30N 49°24' W 000°23'0 0.1
2014-Jul-20 20:33N 49°24' W 000°23'5 5.5
2014-Jul-20 19:33N 49°24' W 000°15'7 7.5
2014-Jul-20 18:33N 49°25' W 000°03'4 3.7
2014-Jul-20 17:33N 49°29' W 000°05'6 6.4
2014-Jul-20 16:33N 49°35' W 000°02'3 3.0
2014-Jul-20 15:33N 49°38' W 000°00'4 4.4
2014-Jul-20 14:33N 49°34' W 000°04'2 2.0
2014-Jul-20 13:33N 49°35' W 000°01'3 3.3
2014-Jul-20 12:33N 49°36' E 000°04'9 8.6
2014-Jul-20 11:33N 49°45' E 000°04'56 2.2
2014-Jul-19 09:21N 50°22' E 001°10'9 3.2
2014-Jul-19 06:28N 50°21' E 000°56'2 2.1
2014-Jul-19 05:33N 50°21' E 000°53'0 0.4
2014-Jul-19 04:16N 50°21' E 000°54'0 0.0
2014-Jul-19 00:28N 50°21' E 000°54'0 0.1
2014-Jul-18 23:22N 50°21' E 000°53'0 0.0
2014-Jul-18 22:28N 50°21' E 000°53'0 0.0
2014-Jul-18 21:19N 50°21' E 000°53'23 8.2
2014-Jul-18 18:33N 50°30' E 001°26'5 5.4
2014-Jul-18 17:33N 50°33' E 001°32'4 3.8
2014-Jul-18 16:34N 50°37' E 001°31'4 4.0
2014-Jul-18 15:34N 50°41' E 001°31'8 8.1
2014-Jul-18 14:33N 50°34' E 001°25'3 3.3
2014-Jul-18 13:33N 50°37' E 001°27'5 4.6
2014-Jul-18 12:24N 50°42' E 001°26'8 4.1
2014-Jul-18 10:21N 50°49' E 001°33'4 4.1
2014-Jul-18 09:28N 50°45' E 001°32'6 6.0
2014-Jul-18 08:31N 50°51' E 001°28'5 5.2
2014-Jul-18 07:30N 50°55' E 001°33'2 2.2
2014-Jul-18 06:33N 50°53' E 001°31'9 9.2
2014-Jul-18 05:33N 50°45' E 001°26'1413.3
2014-Jul-18 04:32N 50°35' E 001°12'1712.7
2014-Jul-18 03:14N 50°26' E 000°49'912.9
2014-Jul-18 02:32N 50°24' E 000°36'4013.5
2014-Jul-17 23:33N 50°20' W 000°27'1313.1
2014-Jul-17 22:33N 50°22' W 000°47'1212.2
2014-Jul-17 21:34N 50°24' W 001°06'1111.0
2014-Jul-17 20:33N 50°27' W 001°23'1010.1
2014-Jul-17 19:34N 50°30' W 001°38'5 5.0
2014-Jul-17 18:33N 50°33' W 001°45'0 0.3
2014-Jul-17 17:28N 50°32' W 001°44'2 1.8
2014-Jul-17 16:31N 50°34' W 001°44'8 7.9
2014-Jul-17 15:33N 50°41' W 001°39'3 2.8
2014-Jul-17 14:33N 50°41' W 001°44'2 2.3
2014-Jul-17 13:33N 50°42' W 001°46'1 1.4
2014-Jul-17 12:32N 50°41' W 001°48'3 3.0
2014-Jul-17 11:32N 50°40' W 001°52'5 4.7
2014-Jul-17 10:34N 50°36' W 001°50'9 8.3
2014-Jul-17 09:30N 50°31' W 002°02'16 7.6
2014-Jul-17 07:27N 50°34' W 002°26'0 0.1
2014-Jul-17 06:28N 50°34' W 002°26'0 0.0
2014-Jul-17 05:25N 50°34' W 002°26'0 0.0
2014-Jul-17 04:22N 50°34' W 002°26'0 0.0
2014-Jul-17 03:16N 50°34' W 002°26'0 0.0
2014-Jul-17 02:31N 50°34' W 002°26'0 0.0
2014-Jul-17 01:16N 50°34' W 002°26'0 0.0
2014-Jul-17 00:28N 50°34' W 002°26'0 0.0
2014-Jul-16 08:16N 50°34' W 002°26'0 0.0
2014-Jul-16 07:31N 50°34' W 002°26'0 0.0
2014-Jul-16 06:22N 50°34' W 002°26'0 0.0
2014-Jul-16 05:28N 50°34' W 002°26'0 0.0
2014-Jul-16 04:28N 50°34' W 002°26'0 0.0
2014-Jul-15 20:19N 50°34' W 002°26'0 0.0
2014-Jul-15 16:04N 50°34' W 002°26'0 0.0
2014-Jul-15 15:13N 50°34' W 002°26'0 0.0
2014-Jul-15 14:13N 50°34' W 002°26'0 0.0
2014-Jul-15 08:17N 50°34' W 002°26'0 0.0
2014-Jul-15 07:14N 50°34' W 002°26'  
Track history (hours):
 
Tides and Currents Weather Stations Pressure Air Temp Water Temp Dewpoint Dewpoint Depression Visibility Wind Speed Wind Dir Waves Ship Positions

Oceanographic research ship CEFAS Endeavour (UK)

Detailed information on ship capabilities available from University of Delaware's Ocean Information Center.

Last reported at 2014-Jul-23 13:33 UTC. Time now 2014-Jul-23 18:10 UTC.
Position N 50°37' W 001°50'.

Length 74 m; draft 6.3 m.

Type: Ship. MMSI: 235005270.

Date/timePositionNaut miles runAvg speedWind from/ knotsBaromVisibWave heightAir tempDewpointWater temp
2014-Jul-23 13:33N 50°37' W 001°50'5 5.0
2014-Jul-23 12:33N 50°40' W 001°43'1 1.3
2014-Jul-23 11:32N 50°39' W 001°45'2 1.8
2014-Jul-23 10:33N 50°40' W 001°43'13 4.0
2014-Jul-23 07:24N 50°35' W 001°25'1 0.5
2014-Jul-23 06:20N 50°35' W 001°24'0 0.1
2014-Jul-23 01:11N 50°35' W 001°24'0 0.0
2014-Jul-23 00:29N 50°35' W 001°24'1 0.1
2014-Jul-22 16:33N 50°34' W 001°24'58 3.2
2014-Jul-21 22:33N 49°36' W 001°10'2 0.8
2014-Jul-21 19:25N 49°34' W 001°09'2 0.6
2014-Jul-21 15:31N 49°33' W 001°12'4 4.0
2014-Jul-21 14:34N 49°34' W 001°07'5 4.7
2014-Jul-21 13:33N 49°38' W 001°03'19 3.2
2014-Jul-21 07:34N 49°24' W 000°43'3 3.5
2014-Jul-21 06:34N 49°26' W 000°40'5 5.2
2014-Jul-21 05:33N 49°25' W 000°32'7 6.5
2014-Jul-21 04:33N 49°23' W 000°22'1 0.9
2014-Jul-21 03:18N 49°24' W 000°23'0 0.0
2014-Jul-21 02:30N 49°24' W 000°23'0 0.0
2014-Jul-21 01:30N 49°24' W 000°23'0 0.0
2014-Jul-21 00:24N 49°24' W 000°23'0 0.1
2014-Jul-20 23:30N 49°24' W 000°23'0 0.1
2014-Jul-20 22:30N 49°24' W 000°23'0 0.1
2014-Jul-20 21:30N 49°24' W 000°23'0 0.1
2014-Jul-20 20:33N 49°24' W 000°23'5 5.5
2014-Jul-20 19:33N 49°24' W 000°15'7 7.5
2014-Jul-20 18:33N 49°25' W 000°03'4 3.7
2014-Jul-20 17:33N 49°29' W 000°05'6 6.4
2014-Jul-20 16:33N 49°35' W 000°02'3 3.0
2014-Jul-20 15:33N 49°38' W 000°00'4 4.4
2014-Jul-20 14:33N 49°34' W 000°04'2 2.0
2014-Jul-20 13:33N 49°35' W 000°01'3 3.3
2014-Jul-20 12:33N 49°36' E 000°04'9 8.6
2014-Jul-20 11:33N 49°45' E 000°04'56 2.2
2014-Jul-19 09:21N 50°22' E 001°10'9 3.2
2014-Jul-19 06:28N 50°21' E 000°56'2 2.1
2014-Jul-19 05:33N 50°21' E 000°53'0 0.4
2014-Jul-19 04:16N 50°21' E 000°54'0 0.0
2014-Jul-19 00:28N 50°21' E 000°54'0 0.1
2014-Jul-18 23:22N 50°21' E 000°53'0 0.0
2014-Jul-18 22:28N 50°21' E 000°53'0 0.0
2014-Jul-18 21:19N 50°21' E 000°53'23 8.2
2014-Jul-18 18:33N 50°30' E 001°26'5 5.4
2014-Jul-18 17:33N 50°33' E 001°32'4 3.8
2014-Jul-18 16:34N 50°37' E 001°31'4 4.0
2014-Jul-18 15:34N 50°41' E 001°31'8 8.1
2014-Jul-18 14:33N 50°34' E 001°25'3 3.3
2014-Jul-18 13:33N 50°37' E 001°27'5 4.6
2014-Jul-18 12:24N 50°42' E 001°26'8 4.1
2014-Jul-18 10:21N 50°49' E 001°33'4 4.1
2014-Jul-18 09:28N 50°45' E 001°32'6 6.0
2014-Jul-18 08:31N 50°51' E 001°28'5 5.2
2014-Jul-18 07:30N 50°55' E 001°33'2 2.2
2014-Jul-18 06:33N 50°53' E 001°31'9 9.2
2014-Jul-18 05:33N 50°45' E 001°26'1413.3
2014-Jul-18 04:32N 50°35' E 001°12'1712.7
2014-Jul-18 03:14N 50°26' E 000°49'912.9
2014-Jul-18 02:32N 50°24' E 000°36'4013.5
2014-Jul-17 23:33N 50°20' W 000°27'1313.1
2014-Jul-17 22:33N 50°22' W 000°47'1212.2
2014-Jul-17 21:34N 50°24' W 001°06'1111.0
2014-Jul-17 20:33N 50°27' W 001°23'1010.1
2014-Jul-17 19:34N 50°30' W 001°38'5 5.0
2014-Jul-17 18:33N 50°33' W 001°45'0 0.3
2014-Jul-17 17:28N 50°32' W 001°44'2 1.8
2014-Jul-17 16:31N 50°34' W 001°44'8 7.9
2014-Jul-17 15:33N 50°41' W 001°39'3 2.8
2014-Jul-17 14:33N 50°41' W 001°44'2 2.3
2014-Jul-17 13:33N 50°42' W 001°46'1 1.4
2014-Jul-17 12:32N 50°41' W 001°48'3 3.0
2014-Jul-17 11:32N 50°40' W 001°52'5 4.7
2014-Jul-17 10:34N 50°36' W 001°50'9 8.3
2014-Jul-17 09:30N 50°31' W 002°02'16 7.6
2014-Jul-17 07:27N 50°34' W 002°26'0 0.1
2014-Jul-17 06:28N 50°34' W 002°26'0 0.0
2014-Jul-17 05:25N 50°34' W 002°26'0 0.0
2014-Jul-17 04:22N 50°34' W 002°26'0 0.0
2014-Jul-17 03:16N 50°34' W 002°26'0 0.0
2014-Jul-17 02:31N 50°34' W 002°26'0 0.0
2014-Jul-17 01:16N 50°34' W 002°26'0 0.0
2014-Jul-17 00:28N 50°34' W 002°26'0 0.0
2014-Jul-16 08:16N 50°34' W 002°26'0 0.0
2014-Jul-16 07:31N 50°34' W 002°26'0 0.0
2014-Jul-16 06:22N 50°34' W 002°26'0 0.0
2014-Jul-16 05:28N 50°34' W 002°26'0 0.0
2014-Jul-16 04:28N 50°34' W 002°26'0 0.0
2014-Jul-15 20:19N 50°34' W 002°26'0 0.0
2014-Jul-15 16:04N 50°34' W 002°26'0 0.0
2014-Jul-15 15:13N 50°34' W 002°26'0 0.0
2014-Jul-15 14:13N 50°34' W 002°26'0 0.0
2014-Jul-15 08:17N 50°34' W 002°26'0 0.0
2014-Jul-15 07:14N 50°34' W 002°26'  

Dump ship's entire track history